createdAt,value
2018-09-11T00:00:12.720Z,526.7
2018-09-11T00:01:15.151Z,527
2018-09-11T00:02:17.584Z,527
2018-09-11T00:03:20.028Z,526.8
2018-09-11T00:04:22.471Z,526.8
2018-09-11T00:05:24.624Z,526.9
2018-09-11T00:06:27.064Z,526.5
2018-09-11T00:07:29.494Z,526.6
2018-09-11T00:08:31.936Z,526.6
2018-09-11T00:09:34.369Z,526.5
2018-09-11T00:10:36.822Z,526.6
2018-09-11T00:11:39.250Z,526.2
2018-09-11T00:12:41.698Z,526.1
2018-09-11T00:13:43.857Z,526.1
2018-09-11T00:14:46.283Z,526.1
2018-09-11T00:15:48.455Z,526
2018-09-11T00:16:50.886Z,525.9
2018-09-11T00:17:53.320Z,525.9
2018-09-11T00:18:55.751Z,526.2
2018-09-11T00:19:58.182Z,525.9
2018-09-11T00:21:00.612Z,526.1
2018-09-11T00:22:03.053Z,526.1
2018-09-11T00:23:05.486Z,526.1
2018-09-11T00:24:07.907Z,526.2
2018-09-11T00:25:10.337Z,526.2
2018-09-11T00:26:12.773Z,526
2018-09-11T00:27:15.203Z,526.2
2018-09-11T00:28:17.630Z,526.1
2018-09-11T00:29:20.064Z,526
2018-09-11T00:30:22.502Z,525.8
2018-09-11T00:31:24.958Z,525.9
2018-09-11T00:32:27.391Z,525.8
2018-09-11T00:33:29.821Z,526.1
2018-09-11T00:34:32.267Z,525.7
2018-09-11T00:35:34.697Z,526.1
2018-09-11T00:36:37.146Z,526
2018-09-11T00:37:39.578Z,526.1
2018-09-11T00:38:42.011Z,526.1
2018-09-11T00:39:44.164Z,526
2018-09-11T00:40:46.583Z,526.4
2018-09-11T00:41:49.025Z,526.4
2018-09-11T00:42:51.467Z,526.6
2018-09-11T00:43:53.907Z,526.7
2018-09-11T00:44:56.045Z,526.9
2018-09-11T00:45:58.202Z,526.5
2018-09-11T00:47:00.643Z,526.9
2018-09-11T00:48:03.072Z,526.7
2018-09-11T00:49:05.511Z,526.4
2018-09-11T00:50:07.939Z,526.4
2018-09-11T00:51:10.364Z,526.1
2018-09-11T00:52:12.788Z,526.2
2018-09-11T00:53:15.222Z,526
2018-09-11T00:54:17.655Z,526.4
2018-09-11T00:55:20.100Z,526.4
2018-09-11T00:56:22.247Z,526.9
2018-09-11T00:57:24.683Z,527
2018-09-11T00:58:27.120Z,526.9
2018-09-11T00:59:29.553Z,527.3
2018-09-11T01:00:31.990Z,527.6
2018-09-11T01:01:34.419Z,527.5
2018-09-11T01:02:36.842Z,527.4
2018-09-11T01:03:39.291Z,527.1
2018-09-11T01:04:41.731Z,527.4
2018-09-11T01:05:44.153Z,527.4
2018-09-11T01:06:46.308Z,527.6
2018-09-11T01:07:48.737Z,527.5
2018-09-11T01:08:51.180Z,527.2
2018-09-11T01:09:53.620Z,527.3
2018-09-11T01:10:56.052Z,527.3
2018-09-11T01:11:58.476Z,527.5
2018-09-11T01:13:00.909Z,527.5
2018-09-11T01:14:03.340Z,527.8
2018-09-11T01:15:05.773Z,527.7
2018-09-11T01:16:08.210Z,527.7
2018-09-11T01:17:10.643Z,527.7
2018-09-11T01:18:13.071Z,526.8
2018-09-11T01:19:15.508Z,527.1
2018-09-11T01:20:17.944Z,526.5
2018-09-11T01:21:20.384Z,526.8
2018-09-11T01:22:22.814Z,526.6
2018-09-11T01:23:25.258Z,526.8
2018-09-11T01:24:27.691Z,527
2018-09-11T01:25:30.124Z,526.7
2018-09-11T01:26:32.556Z,527
2018-09-11T01:27:34.997Z,527.2
2018-09-11T01:28:37.431Z,527.2
2018-09-11T01:29:39.870Z,527.8
2018-09-11T01:30:42.306Z,527.7
2018-09-11T01:31:44.738Z,527.5
2018-09-11T01:32:47.187Z,527.2
2018-09-11T01:33:49.343Z,527.4
2018-09-11T01:34:51.813Z,527.2
2018-09-11T01:35:54.282Z,527.4
2018-09-11T01:36:56.734Z,527.4
2018-09-11T01:37:58.889Z,527.4
2018-09-11T01:39:01.333Z,527.5
2018-09-11T01:40:03.772Z,527.5
2018-09-11T01:41:06.197Z,527
2018-09-11T01:42:08.630Z,527.5
2018-09-11T01:43:11.068Z,527.2
2018-09-11T01:44:13.495Z,526.8
2018-09-11T01:45:15.952Z,527
2018-09-11T01:46:18.393Z,526.9
2018-09-11T01:47:20.830Z,526.9
2018-09-11T01:48:23.250Z,526.9
2018-09-11T01:49:25.695Z,526.5
2018-09-11T01:50:28.136Z,526.8
2018-09-11T01:51:30.576Z,526.7
2018-09-11T01:52:33.023Z,526.8
2018-09-11T01:53:35.468Z,526.8
2018-09-11T01:54:37.627Z,526.5
2018-09-11T01:55:40.061Z,526.9
2018-09-11T01:56:42.215Z,526.9
2018-09-11T01:57:44.376Z,526.6
2018-09-11T01:58:46.535Z,526.6
2018-09-11T01:59:48.971Z,526.4
2018-09-11T02:00:51.409Z,526.2
2018-09-11T02:01:53.833Z,526.2
2018-09-11T02:02:56.269Z,526.4
2018-09-11T02:03:58.709Z,526
2018-09-11T02:05:01.139Z,526
2018-09-11T02:06:03.587Z,526.1
2018-09-11T02:07:06.017Z,525.7
2018-09-11T02:08:08.445Z,526
2018-09-11T02:09:10.881Z,525.8
2018-09-11T02:10:13.307Z,526
2018-09-11T02:11:15.738Z,525.8
2018-09-11T02:12:18.177Z,525.4
2018-09-11T02:13:20.605Z,525.6
2018-09-11T02:14:23.029Z,525.7
2018-09-11T02:15:25.463Z,525.4
2018-09-11T02:16:27.905Z,525.2
2018-09-11T02:17:30.332Z,525.5
2018-09-11T02:18:32.793Z,525.2
2018-09-11T02:19:35.246Z,525.3
2018-09-11T02:20:37.403Z,525.4
2018-09-11T02:21:39.831Z,525.3
2018-09-11T02:22:42.251Z,525.4
2018-09-11T02:23:44.690Z,525.5
2018-09-11T02:24:47.128Z,525.6
2018-09-11T02:25:49.565Z,525.5
2018-09-11T02:26:52.005Z,525.5
2018-09-11T02:27:54.446Z,525.8
2018-09-11T02:28:56.873Z,525.8
2018-09-11T02:29:59.348Z,525.6
2018-09-11T02:31:01.232Z,525.6
2018-09-11T02:32:03.660Z,525.4
2018-09-11T02:33:06.095Z,525.2
2018-09-11T02:34:08.528Z,525.5
2018-09-11T02:35:10.969Z,525.4
2018-09-11T02:36:13.388Z,525.4
2018-09-11T02:37:15.818Z,525.5
2018-09-11T02:38:18.251Z,525.2
2018-09-11T02:39:20.690Z,525.1
2018-09-11T02:40:23.137Z,525
2018-09-11T02:41:25.286Z,524.9
2018-09-11T02:42:27.722Z,525.2
2018-09-11T02:43:30.157Z,524.9
2018-09-11T02:44:32.612Z,524.6
2018-09-11T02:45:35.053Z,524.8
2018-09-11T02:46:37.478Z,525.2
2018-09-11T02:47:39.957Z,525.1
2018-09-11T02:48:42.408Z,524.9
2018-09-11T02:49:44.827Z,524.8
2018-09-11T02:50:47.264Z,524.8
2018-09-11T02:51:49.407Z,524.2
2018-09-11T02:52:51.846Z,523.9
2018-09-11T02:53:54.022Z,523.2
2018-09-11T02:54:56.487Z,523.9
2018-09-11T02:55:58.914Z,523.6
2018-09-11T02:57:00.810Z,524.5
2018-09-11T02:58:03.255Z,524.3
2018-09-11T02:59:05.703Z,524.2
2018-09-11T03:00:08.165Z,523.7
2018-09-11T03:01:10.592Z,523.8
2018-09-11T03:02:13.024Z,523.2
2018-09-11T03:03:15.477Z,523.3
2018-09-11T03:04:17.625Z,523.3
2018-09-11T03:05:19.776Z,523.9
2018-09-11T03:06:22.216Z,524.3
2018-09-11T03:07:24.644Z,523.7
2018-09-11T03:08:27.100Z,523.7
2018-09-11T03:09:29.257Z,523.8
2018-09-11T03:10:31.691Z,523.4
2018-09-11T03:11:34.124Z,523.9
2018-09-11T03:12:36.558Z,523.8
2018-09-11T03:13:38.996Z,523.8
2018-09-11T03:14:41.434Z,523.7
2018-09-11T03:15:43.871Z,524
2018-09-11T03:16:46.303Z,524.5
2018-09-11T03:17:48.446Z,524.6
2018-09-11T03:18:51.396Z,524.8
2018-09-11T03:19:53.849Z,525.1
2018-09-11T03:20:56.320Z,525.3
2018-09-11T03:21:58.745Z,525.2
2018-09-11T03:23:01.188Z,524.8
2018-09-11T03:24:03.619Z,524.9
2018-09-11T03:25:06.046Z,524.4
2018-09-11T03:26:08.495Z,524.3
2018-09-11T03:27:10.921Z,524.6
2018-09-11T03:28:13.366Z,524.2
2018-09-11T03:29:15.794Z,524.3
2018-09-11T03:30:18.227Z,524.3
2018-09-11T03:31:20.657Z,524.2
2018-09-11T03:32:23.081Z,524.4
2018-09-11T03:33:25.504Z,524.7
2018-09-11T03:34:27.950Z,524.1
2018-09-11T03:35:30.378Z,524.1
2018-09-11T03:36:32.810Z,524.1
2018-09-11T03:37:35.243Z,524.1
2018-09-11T03:38:37.692Z,524.3
2018-09-11T03:39:40.125Z,523.6
2018-09-11T03:40:42.551Z,524.4
2018-09-11T03:41:44.974Z,523.8
2018-09-11T03:42:47.135Z,523.8
2018-09-11T03:43:49.571Z,523.9
2018-09-11T03:44:51.425Z,523.7
2018-09-11T03:45:53.583Z,523.7
2018-09-11T03:46:55.766Z,523.9
2018-09-11T03:47:58.191Z,523.5
2018-09-11T03:49:00.339Z,523.9
2018-09-11T03:50:02.763Z,523.6
2018-09-11T03:51:05.204Z,523.6
2018-09-11T03:52:07.631Z,523.5
2018-09-11T03:53:10.071Z,523.4
2018-09-11T03:54:12.532Z,523.2
2018-09-11T03:55:14.976Z,523.6
2018-09-11T03:56:17.407Z,523.1
2018-09-11T03:57:19.855Z,523.4
2018-09-11T03:58:22.295Z,523.1
2018-09-11T03:59:25.136Z,523.4
2018-09-11T04:00:27.656Z,523.8
2018-09-11T04:01:30.099Z,523.9
2018-09-11T04:02:32.534Z,523.8
2018-09-11T04:03:34.973Z,523.8
2018-09-11T04:04:37.402Z,523.7
2018-09-11T04:05:40.485Z,523.6
2018-09-11T04:06:42.911Z,523.5
2018-09-11T04:07:45.342Z,523.9
2018-09-11T04:08:47.774Z,523.4
2018-09-11T04:09:50.209Z,523.3
2018-09-11T04:10:52.634Z,523.4
2018-09-11T04:11:55.086Z,523.2
2018-09-11T04:12:57.239Z,523.6
2018-09-11T04:13:59.686Z,523.2
2018-09-11T04:15:02.171Z,523.2
2018-09-11T04:16:04.604Z,522.8
2018-09-11T04:17:07.029Z,522.8
2018-09-11T04:18:09.477Z,522.5
2018-09-11T04:19:11.922Z,522.3
2018-09-11T04:20:14.348Z,522.9
2018-09-11T04:21:16.788Z,522.9
2018-09-11T04:22:19.233Z,522.6
2018-09-11T04:23:21.685Z,522.7
2018-09-11T04:24:24.125Z,522.8
2018-09-11T04:25:26.626Z,522.4
2018-09-11T04:26:29.051Z,522.2
2018-09-11T04:27:31.485Z,522.3
2018-09-11T04:28:33.916Z,522
2018-09-11T04:29:36.355Z,521.9
2018-09-11T04:30:38.783Z,522.1
2018-09-11T04:31:41.222Z,522
2018-09-11T04:32:43.651Z,522.2
2018-09-11T04:33:45.798Z,521.7
2018-09-11T04:34:48.226Z,521.7
2018-09-11T04:35:50.654Z,522
2018-09-11T04:36:53.079Z,521.7
2018-09-11T04:37:55.509Z,521.5
2018-09-11T04:38:57.954Z,522
2018-09-11T04:40:00.384Z,521.9
2018-09-11T04:41:02.815Z,522.1
2018-09-11T04:42:05.241Z,521.9
2018-09-11T04:43:08.163Z,521.8
2018-09-11T04:44:10.666Z,521.9
2018-09-11T04:45:12.817Z,522
2018-09-11T04:46:14.968Z,521.5
2018-09-11T04:47:17.131Z,521.6
2018-09-11T04:48:19.581Z,521.3
2018-09-11T04:49:21.747Z,521.4
2018-09-11T04:50:24.177Z,521.5
2018-09-11T04:51:26.642Z,521.4
2018-09-11T04:52:29.063Z,521.1
2018-09-11T04:53:31.498Z,520.9
2018-09-11T04:54:33.944Z,520.9
2018-09-11T04:55:36.382Z,520.4
2018-09-11T04:56:38.558Z,520.6
2018-09-11T04:57:40.992Z,520.3
2018-09-11T04:58:43.158Z,520.3
2018-09-11T04:59:45.595Z,520.3
2018-09-11T05:00:47.751Z,520.1
2018-09-11T05:01:50.184Z,519.5
2018-09-11T05:02:52.617Z,519.8
2018-09-11T05:03:55.051Z,519.2
2018-09-11T05:04:57.512Z,519.5
2018-09-11T05:05:59.953Z,519.4
2018-09-11T05:07:02.398Z,518.8
2018-09-11T05:08:04.895Z,518.6
2018-09-11T05:09:07.337Z,518.6
2018-09-11T05:10:09.775Z,518.4
2018-09-11T05:11:11.963Z,518.2
2018-09-11T05:12:14.399Z,518.2
2018-09-11T05:13:16.827Z,518.1
2018-09-11T05:14:18.996Z,518
2018-09-11T05:15:21.446Z,518
2018-09-11T05:16:23.886Z,517.8
2018-09-11T05:17:26.337Z,517.3
2018-09-11T05:18:28.764Z,517.7
2018-09-11T05:19:30.913Z,517.3
2018-09-11T05:20:33.337Z,517.1
2018-09-11T05:21:35.785Z,516.8
2018-09-11T05:22:38.224Z,516.9
2018-09-11T05:23:40.659Z,516.9
2018-09-11T05:24:43.110Z,516.7
2018-09-11T05:25:45.545Z,516.8
2018-09-11T05:26:47.976Z,516.6
2018-09-11T05:27:50.440Z,516.5
2018-09-11T05:28:52.876Z,516.2
2018-09-11T05:29:55.309Z,516.4
2018-09-11T05:30:57.733Z,516.6
2018-09-11T05:32:00.184Z,516.4
2018-09-11T05:33:02.606Z,516.2
2018-09-11T05:34:05.049Z,515.9
2018-09-11T05:35:07.476Z,515.7
2018-09-11T05:36:09.935Z,515.5
2018-09-11T05:37:12.359Z,515.1
2018-09-11T05:38:14.812Z,515.4
2018-09-11T05:39:17.247Z,515
2018-09-11T05:40:19.701Z,515.1
2018-09-11T05:41:22.190Z,515.2
2018-09-11T05:42:24.641Z,515.4
2018-09-11T05:43:27.079Z,515.4
2018-09-11T05:44:29.522Z,514.9
2018-09-11T05:45:31.975Z,515
2018-09-11T05:46:34.429Z,515
2018-09-11T05:47:36.861Z,515
2018-09-11T05:48:39.286Z,515.2
2018-09-11T05:49:41.430Z,514.7
2018-09-11T05:50:43.885Z,514.9
2018-09-11T05:51:46.314Z,515
2018-09-11T05:52:48.746Z,514.7
2018-09-11T05:53:51.166Z,515.2
2018-09-11T05:54:53.596Z,514.9
2018-09-11T05:55:56.036Z,515
2018-09-11T05:56:58.485Z,515.1
2018-09-11T05:58:00.904Z,515.1
2018-09-11T05:59:03.330Z,514.8
2018-09-11T06:00:05.762Z,515
2018-09-11T06:01:08.209Z,515
2018-09-11T06:02:10.629Z,515.1
2018-09-11T06:03:13.059Z,515.2
2018-09-11T06:04:15.497Z,514.6
2018-09-11T06:05:17.934Z,514.8
2018-09-11T06:06:20.363Z,514.8
2018-09-11T06:07:22.541Z,514.7
2018-09-11T06:08:24.706Z,514.6
2018-09-11T06:09:27.182Z,514.7
2018-09-11T06:10:29.358Z,514.6
2018-09-11T06:11:31.518Z,514.2
2018-09-11T06:12:33.954Z,514.6
2018-09-11T06:13:36.412Z,514.4
2018-09-11T06:14:38.853Z,514.3
2018-09-11T06:15:41.296Z,514.6
2018-09-11T06:16:43.742Z,514.2
2018-09-11T06:17:46.180Z,514.5
2018-09-11T06:18:48.624Z,514.6
2018-09-11T06:19:51.056Z,515.2
2018-09-11T06:20:53.491Z,514.7
2018-09-11T06:21:55.934Z,514.9
2018-09-11T06:22:58.370Z,515.2
2018-09-11T06:24:00.802Z,514.9
2018-09-11T06:25:03.229Z,515.1
2018-09-11T06:26:05.660Z,515.1
2018-09-11T06:27:08.090Z,514.9
2018-09-11T06:28:10.524Z,515.3
2018-09-11T06:29:13.323Z,515.2
2018-09-11T06:30:15.765Z,515.4
2018-09-11T06:31:18.185Z,515.9
2018-09-11T06:32:20.653Z,515.6
2018-09-11T06:33:23.122Z,516
2018-09-11T06:34:25.546Z,515.4
2018-09-11T06:35:28.314Z,516
2018-09-11T06:36:30.789Z,515.6
2018-09-11T06:37:33.219Z,515.7
2018-09-11T06:38:35.666Z,515.8
2018-09-11T06:39:38.094Z,515.5
2018-09-11T06:40:40.541Z,515.7
2018-09-11T06:41:42.691Z,515.1
2018-09-11T06:42:45.121Z,515.2
2018-09-11T06:43:47.548Z,515.1
2018-09-11T06:44:50.530Z,514.7
2018-09-11T06:45:52.514Z,514.9
2018-09-11T06:46:55.125Z,514.7
2018-09-11T06:47:57.569Z,514.5
2018-09-11T06:49:00.013Z,514.3
2018-09-11T06:50:02.449Z,514.3
2018-09-11T06:51:04.877Z,514.2
2018-09-11T06:52:07.301Z,513.9
2018-09-11T06:53:09.736Z,514.3
2018-09-11T06:54:12.181Z,514
2018-09-11T06:55:14.339Z,513.8
2018-09-11T06:56:16.808Z,513.9
2018-09-11T06:57:19.247Z,513.9
2018-09-11T06:58:21.694Z,513.8
2018-09-11T06:59:24.132Z,514
2018-09-11T07:00:26.645Z,513.8
2018-09-11T07:01:29.066Z,514
2018-09-11T07:02:31.483Z,514
2018-09-11T07:03:33.935Z,514.1
2018-09-11T07:04:36.376Z,514.1
2018-09-11T07:05:38.528Z,514.1
2018-09-11T07:06:40.963Z,513.8
2018-09-11T07:07:43.115Z,514.1
2018-09-11T07:08:45.545Z,514.1
2018-09-11T07:09:47.976Z,514.1
2018-09-11T07:10:50.425Z,513.8
2018-09-11T07:11:52.888Z,513.8
2018-09-11T07:12:55.362Z,513.4
2018-09-11T07:13:57.783Z,513.6
2018-09-11T07:15:00.215Z,513.4
2018-09-11T07:16:02.657Z,513.5
2018-09-11T07:17:05.084Z,513.3
2018-09-11T07:18:07.521Z,513.4
2018-09-11T07:19:09.950Z,513.4
2018-09-11T07:20:14.611Z,513.2
2018-09-11T07:21:17.265Z,513.1
2018-09-11T07:22:19.707Z,512.9
2018-09-11T07:23:22.161Z,513.1
2018-09-11T07:24:24.604Z,512.7
2018-09-11T07:25:27.061Z,512.4
2018-09-11T07:26:29.492Z,512.7
2018-09-11T07:27:31.961Z,512.5
2018-09-11T07:28:34.399Z,512.3
2018-09-11T07:29:36.829Z,512.3
2018-09-11T07:30:39.276Z,512.3
2018-09-11T07:31:41.714Z,512.7
2018-09-11T07:32:44.150Z,512.5
2018-09-11T07:33:46.589Z,512.4
2018-09-11T07:34:49.013Z,512.3
2018-09-11T07:35:51.449Z,512.1
2018-09-11T07:36:53.885Z,512.1
2018-09-11T07:37:56.853Z,512.1
2018-09-11T07:38:59.301Z,511.7
2018-09-11T07:40:01.741Z,512
2018-09-11T07:41:04.184Z,512.1
2018-09-11T07:42:06.635Z,511.9
2018-09-11T07:43:08.805Z,511.8
2018-09-11T07:44:11.253Z,511.7
2018-09-11T07:45:13.693Z,511.9
2018-09-11T07:46:16.130Z,511.7
2018-09-11T07:47:18.555Z,511.8
2018-09-11T07:48:20.987Z,512
2018-09-11T07:49:23.408Z,511.8
2018-09-11T07:50:25.860Z,511.5
2018-09-11T07:51:28.292Z,511.5
2018-09-11T07:52:31.263Z,511.2
2018-09-11T07:53:33.792Z,511.1
2018-09-11T07:54:36.217Z,511.5
2018-09-11T07:55:38.647Z,511.3
2018-09-11T07:56:41.082Z,511.4
2018-09-11T07:57:44.224Z,511.1
2018-09-11T07:58:46.673Z,510.9
2018-09-11T07:59:48.824Z,511
2018-09-11T08:00:51.269Z,511
2018-09-11T08:01:53.713Z,510.6
2018-09-11T08:02:56.298Z,510.8
2018-09-11T08:03:58.727Z,510.5
2018-09-11T08:05:01.276Z,510.6
2018-09-11T08:06:03.714Z,510.7
2018-09-11T08:07:06.164Z,510.7
2018-09-11T08:08:08.585Z,510.5
2018-09-11T08:09:11.020Z,510.3
2018-09-11T08:10:13.499Z,510.3
2018-09-11T08:11:15.932Z,510.1
2018-09-11T08:12:18.384Z,509.9
2018-09-11T08:13:20.834Z,510.5
2018-09-11T08:14:23.270Z,510.3
2018-09-11T08:15:25.718Z,510.1
2018-09-11T08:16:28.492Z,509.8
2018-09-11T08:17:30.918Z,509.9
2018-09-11T08:18:33.366Z,509.9
2018-09-11T08:19:35.882Z,509.8
2018-09-11T08:20:38.325Z,509.8
2018-09-11T08:21:40.768Z,509.9
2018-09-11T08:22:43.206Z,509.7
2018-09-11T08:23:45.368Z,510
2018-09-11T08:24:47.805Z,509.9
2018-09-11T08:25:50.265Z,509.6
2018-09-11T08:26:52.714Z,509.9
2018-09-11T08:27:55.143Z,509.9
2018-09-11T08:28:57.582Z,509.4
2018-09-11T08:30:00.017Z,509.7
2018-09-11T08:31:02.457Z,509.6
2018-09-11T08:32:04.893Z,509.7
2018-09-11T08:33:07.325Z,510.1
2018-09-11T08:34:09.484Z,510.1
2018-09-11T08:35:11.653Z,509.9
2018-09-11T08:36:14.101Z,510
2018-09-11T08:37:16.526Z,510.1
2018-09-11T08:38:18.966Z,510.6
2018-09-11T08:39:21.118Z,510.2
2018-09-11T08:40:23.575Z,510.4
2018-09-11T08:41:25.997Z,510.6
2018-09-11T08:42:28.455Z,510.7
2018-09-11T08:43:30.883Z,510.5
2018-09-11T08:44:33.049Z,510.5
2018-09-11T08:45:35.505Z,510.5
2018-09-11T08:46:38.248Z,510.6
2018-09-11T08:47:40.726Z,510.2
2018-09-11T08:48:43.199Z,510.2
2018-09-11T08:49:45.670Z,510.2
2018-09-11T08:50:48.129Z,510.2
2018-09-11T08:51:50.580Z,509.9
2018-09-11T08:52:53.391Z,510.4
2018-09-11T08:53:55.557Z,510.3
2018-09-11T08:54:57.986Z,510.4
2018-09-11T08:56:00.443Z,510.5
2018-09-11T08:57:02.902Z,510.9
2018-09-11T08:58:05.332Z,510.7
2018-09-11T08:59:07.758Z,510.8
2018-09-11T09:00:10.208Z,510.8
2018-09-11T09:01:12.386Z,510.7
2018-09-11T09:02:14.856Z,510.7
2018-09-11T09:03:17.280Z,510.9
2018-09-11T09:04:19.718Z,511.1
2018-09-11T09:05:22.150Z,511.2
2018-09-11T09:06:24.574Z,511.3
2018-09-11T09:07:27.016Z,511.3
2018-09-11T09:08:29.449Z,511.7
2018-09-11T09:09:31.920Z,511.7
2018-09-11T09:10:34.368Z,511.8
2018-09-11T09:11:36.806Z,511.8
2018-09-11T09:12:39.266Z,511.9
2018-09-11T09:13:41.706Z,512.1
2018-09-11T09:14:44.129Z,512.5
2018-09-11T09:15:47.090Z,511.9
2018-09-11T09:16:49.514Z,511.7
2018-09-11T09:17:51.962Z,512.2
2018-09-11T09:18:54.396Z,512.2
2018-09-11T09:19:56.822Z,511.9
2018-09-11T09:20:59.698Z,512.4
2018-09-11T09:22:02.176Z,512.5
2018-09-11T09:23:04.604Z,512.4
2018-09-11T09:24:07.036Z,512.5
2018-09-11T09:25:09.245Z,512.6
2018-09-11T09:26:11.686Z,512.6
2018-09-11T09:27:14.456Z,512.5
2018-09-11T09:28:16.887Z,513.1
2018-09-11T09:29:19.317Z,513.1
2018-09-11T09:30:21.486Z,513.3
2018-09-11T09:31:23.933Z,513.1
2018-09-11T09:32:26.368Z,512.9
2018-09-11T09:33:28.823Z,513.1
2018-09-11T09:34:31.271Z,512.8
2018-09-11T09:35:33.689Z,513.3
2018-09-11T09:36:36.441Z,513.7
2018-09-11T09:37:38.921Z,512.8
2018-09-11T09:38:41.377Z,513.3
2018-09-11T09:39:43.806Z,513.3
2018-09-11T09:40:45.985Z,513
2018-09-11T09:41:48.149Z,513.4
2018-09-11T09:42:50.334Z,513.4
2018-09-11T09:43:52.948Z,513.2
2018-09-11T09:44:55.104Z,513.4
2018-09-11T09:45:57.546Z,513.3
2018-09-11T09:46:59.721Z,513.6
2018-09-11T09:48:01.890Z,513.6
2018-09-11T09:49:04.316Z,513.7
2018-09-11T09:50:06.749Z,513.8
2018-09-11T09:51:09.186Z,513.9
2018-09-11T09:52:11.624Z,514.2
2018-09-11T09:53:14.046Z,514.2
2018-09-11T09:54:16.475Z,514
2018-09-11T09:55:18.909Z,514.1
2018-09-11T09:56:21.350Z,514.1
2018-09-11T09:57:23.797Z,514.2
2018-09-11T09:58:26.229Z,514.1
2018-09-11T09:59:28.666Z,514.2
2018-09-11T10:00:31.111Z,514.5
2018-09-11T10:01:33.544Z,514.6
2018-09-11T10:02:36.017Z,514.1
2018-09-11T10:03:38.458Z,514.4
2018-09-11T10:04:40.996Z,514.3
2018-09-11T10:05:43.438Z,514.5
2018-09-11T10:06:45.614Z,514.2
2018-09-11T10:07:48.037Z,514.4
2018-09-11T10:08:50.478Z,514.6
2018-09-11T10:09:52.916Z,514.5
2018-09-11T10:10:55.347Z,514.4
2018-09-11T10:11:57.819Z,514.4
2018-09-11T10:13:00.257Z,514.7
2018-09-11T10:14:02.438Z,514.8
2018-09-11T10:15:04.880Z,515.2
2018-09-11T10:16:07.348Z,515.1
2018-09-11T10:17:09.798Z,515
2018-09-11T10:18:12.230Z,515.3
2018-09-11T10:19:14.665Z,515.1
2018-09-11T10:20:17.102Z,515.3
2018-09-11T10:21:19.544Z,515.5
2018-09-11T10:22:21.982Z,515.2
2018-09-11T10:23:24.423Z,515.7
2018-09-11T10:24:26.870Z,515.8
2018-09-11T10:25:29.305Z,516
2018-09-11T10:26:31.738Z,515.8
2018-09-11T10:27:34.394Z,515.4
2018-09-11T10:28:36.836Z,515.6
2018-09-11T10:29:38.992Z,515.7
2018-09-11T10:30:41.433Z,515.7
2018-09-11T10:31:43.883Z,515.6
2018-09-11T10:32:46.323Z,515.6
2018-09-11T10:33:49.274Z,515.3
2018-09-11T10:34:51.745Z,515.8
2018-09-11T10:35:54.193Z,515.8
2018-09-11T10:36:56.636Z,515.9
2018-09-11T10:37:59.082Z,516
2018-09-11T10:39:01.516Z,515.9
2018-09-11T10:40:03.939Z,516
2018-09-11T10:41:06.364Z,516.3
2018-09-11T10:42:08.809Z,516.3
2018-09-11T10:43:11.248Z,516.3
2018-09-11T10:44:13.695Z,516.6
2018-09-11T10:45:16.139Z,516.6
2018-09-11T10:46:18.576Z,517.1
2018-09-11T10:47:21.015Z,516.9
2018-09-11T10:48:23.450Z,517
2018-09-11T10:49:25.608Z,517.3
2018-09-11T10:50:28.041Z,517.4
2018-09-11T10:51:30.466Z,517.7
2018-09-11T10:52:32.926Z,517.2
2018-09-11T10:53:35.387Z,517.1
2018-09-11T10:54:37.562Z,517.3
2018-09-11T10:55:39.721Z,517.7
2018-09-11T10:56:42.146Z,517.8
2018-09-11T10:57:44.602Z,517.7
2018-09-11T10:58:47.049Z,517.2
2018-09-11T10:59:49.513Z,517.8
2018-09-11T11:00:51.943Z,518.4
2018-09-11T11:01:54.376Z,518.4
2018-09-11T11:02:56.822Z,518.4
2018-09-11T11:03:59.250Z,518.2
2018-09-11T11:05:01.410Z,518.6
2018-09-11T11:06:03.858Z,518.5
2018-09-11T11:07:06.310Z,518.2
2018-09-11T11:08:08.754Z,518.6
2018-09-11T11:09:11.192Z,518.5
2018-09-11T11:10:13.626Z,518.7
2018-09-11T11:11:16.054Z,518.7
2018-09-11T11:12:18.527Z,518.6
2018-09-11T11:13:20.957Z,518.6
2018-09-11T11:14:23.413Z,518.9
2018-09-11T11:15:25.854Z,518.9
2018-09-11T11:16:28.299Z,518.9
2018-09-11T11:17:30.744Z,519.1
2018-09-11T11:18:33.178Z,519.1
2018-09-11T11:19:35.607Z,519.5
2018-09-11T11:20:38.054Z,519.5
2018-09-11T11:21:40.486Z,519.7
2018-09-11T11:22:42.915Z,519.7
2018-09-11T11:23:45.335Z,519.7
2018-09-11T11:24:47.787Z,519.2
2018-09-11T11:25:50.223Z,519.6
2018-09-11T11:26:52.871Z,520
2018-09-11T11:27:55.327Z,519.9
2018-09-11T11:28:57.765Z,519.8
2018-09-11T11:30:00.197Z,519.6
2018-09-11T11:31:02.644Z,519.8
2018-09-11T11:32:05.081Z,519.6
2018-09-11T11:33:07.512Z,519.5
2018-09-11T11:34:09.414Z,520
2018-09-11T11:35:11.854Z,520
2018-09-11T11:36:15.122Z,519.9
2018-09-11T11:37:18.679Z,520
2018-09-11T11:38:21.215Z,520.6
2018-09-11T11:39:23.367Z,520.6
2018-09-11T11:40:25.800Z,520.7
2018-09-11T11:41:28.248Z,520.5
2018-09-11T11:42:30.986Z,520.7
2018-09-11T11:43:33.441Z,520.5
2018-09-11T11:44:35.872Z,521
2018-09-11T11:45:38.325Z,520.6
2018-09-11T11:46:40.752Z,520.7
2018-09-11T11:47:43.264Z,521
2018-09-11T11:48:45.695Z,521
2018-09-11T11:49:48.127Z,520.9
2018-09-11T11:50:50.571Z,520.8
2018-09-11T11:51:53.007Z,521
2018-09-11T11:52:55.441Z,520.9
2018-09-11T11:53:57.887Z,520.9
2018-09-11T11:55:00.784Z,521.2
2018-09-11T11:56:02.876Z,521.7
2018-09-11T11:57:05.333Z,521.5
2018-09-11T11:58:07.790Z,521
2018-09-11T11:59:10.234Z,521.1
2018-09-11T12:00:12.655Z,521.2
2018-09-11T12:01:15.097Z,521.5
2018-09-11T12:02:17.527Z,521.4
2018-09-11T12:03:19.968Z,521.8
2018-09-11T12:04:22.405Z,522
2018-09-11T12:05:24.856Z,521.8
2018-09-11T12:06:27.049Z,521.6
2018-09-11T12:07:29.477Z,521.5
2018-09-11T12:08:31.917Z,521.7
2018-09-11T12:09:34.352Z,522
2018-09-11T12:10:36.505Z,521.4
2018-09-11T12:11:38.947Z,521.7
2018-09-11T12:12:41.387Z,521.3
2018-09-11T12:13:43.869Z,521.3
2018-09-11T12:14:46.308Z,521.3
2018-09-11T12:15:48.739Z,521.2
2018-09-11T12:16:51.404Z,521.2
2018-09-11T12:17:53.839Z,521.1
2018-09-11T12:18:56.272Z,521.4
2018-09-11T12:19:58.766Z,521.4
2018-09-11T12:21:01.215Z,521.1
2018-09-11T12:22:03.636Z,521.4
2018-09-11T12:23:06.078Z,521.4
2018-09-11T12:24:08.264Z,521.4
2018-09-11T12:25:10.710Z,521.3
2018-09-11T12:26:13.438Z,521.6
2018-09-11T12:27:15.927Z,521.9
2018-09-11T12:28:18.372Z,521.8
2018-09-11T12:29:20.818Z,522
2018-09-11T12:30:23.237Z,522.1
2018-09-11T12:31:25.761Z,522.1
2018-09-11T12:32:28.209Z,522.3
2018-09-11T12:33:30.345Z,522.1
2018-09-11T12:34:32.785Z,522
2018-09-11T12:35:35.240Z,522.1
2018-09-11T12:36:37.368Z,522.3
2018-09-11T12:37:39.813Z,522.3
2018-09-11T12:38:42.269Z,521.9
2018-09-11T12:39:44.428Z,522.4
2018-09-11T12:40:46.875Z,521.8
2018-09-11T12:41:49.328Z,522.4
2018-09-11T12:42:51.774Z,522.3
2018-09-11T12:43:53.962Z,522.5
2018-09-11T12:44:56.400Z,522.5
2018-09-11T12:45:59.999Z,522.8
2018-09-11T12:47:04.145Z,522.8
2018-09-11T12:48:10.463Z,522.6
2018-09-11T12:49:13.252Z,522.6
2018-09-11T12:50:15.725Z,522.8
2018-09-11T12:51:18.166Z,522.9
2018-09-11T12:52:20.685Z,522.9
2018-09-11T12:53:22.840Z,522.9
2018-09-11T12:54:24.737Z,523
2018-09-11T12:55:27.178Z,523.2
2018-09-11T12:56:29.610Z,523.3
2018-09-11T12:57:32.066Z,523.1
2018-09-11T12:58:34.225Z,523.4
2018-09-11T12:59:36.666Z,523.3
2018-09-11T13:00:38.835Z,523.7
2018-09-11T13:01:41.334Z,523.6
2018-09-11T13:02:43.759Z,523.7
2018-09-11T13:03:46.218Z,524.5
2018-09-11T13:04:48.651Z,524.6
2018-09-11T13:05:51.134Z,525.1
2018-09-11T13:06:53.593Z,524.3
2018-09-11T13:07:56.038Z,524.9
2018-09-11T13:08:58.595Z,524.7
2018-09-11T13:10:01.077Z,524.4
2018-09-11T13:11:03.532Z,524.5
2018-09-11T13:12:05.956Z,525.1
2018-09-11T13:13:08.389Z,524.6
2018-09-11T13:14:10.832Z,524.6
2018-09-11T13:15:13.892Z,524.4
2018-09-11T13:16:16.360Z,524.6
2018-09-11T13:17:18.791Z,524.4
2018-09-11T13:18:21.216Z,524.4
2018-09-11T13:19:23.647Z,524.5
2018-09-11T13:20:26.078Z,525.2
2018-09-11T13:21:28.236Z,525.1
2018-09-11T13:22:30.671Z,525.1
2018-09-11T13:23:33.125Z,525
2018-09-11T13:24:35.562Z,524.6
2018-09-11T13:25:38.010Z,525
2018-09-11T13:26:40.472Z,525.5
2018-09-11T13:27:42.907Z,525.5
2018-09-11T13:28:45.390Z,525.6